Golden Empress — VRHM9 — position and weather

sailwx.info

Track history (hours):
 
Tides and Currents Weather Stations Pressure Air Temp Water Temp Dewpoint Dewpoint Depression Visibility Wind Speed Wind Dir Waves Ship Positions

Golden Empress

Last reported at 2018-May-16 12:36 UTC. Time now 2018-May-22 19:23 UTC.
Position N 36°19' E 014°21'.

Length 229 m; draft 14.5 m.

Type: Ship. MMSI: 477962300.

Date/timePositionNaut miles runAvg speedWind from/ knotsBaromVisibWave heightAir tempDewpointWater temp
2018-May-16 12:36N 36°19' E 014°21'111.7
2018-May-16 12:30N 36°19' E 014°20'711.8
2018-May-16 11:57N 36°20' E 014°12'612.1
2018-May-16 11:29N 36°21' E 014°05'1012.2
2018-May-16 10:39N 36°24' E 013°53'212.2
2018-May-16 10:31N 36°24' E 013°51'612.2
2018-May-16 10:00N 36°25' E 013°43'712.1
2018-May-16 09:28N 36°27' E 013°35'1312.3
2018-May-16 08:25N 36°32' E 013°20'613.5
2018-May-16 07:59N 36°34' E 013°14'1113.3
2018-May-16 07:11N 36°39' E 013°02'  
2018-May-14 01:51N 36°41' E 000°19'411.2
2018-May-14 01:30N 36°40' E 000°14'611.1
2018-May-14 00:59N 36°39' E 000°07'23311.7
2018-May-13 05:09N 36°03' W 004°39'2113.5
2018-May-13 03:35N 36°02' W 005°05'112.3
2018-May-13 03:30N 36°02' W 005°06'612.3
2018-May-13 03:00N 36°01' W 005°13'612.6
2018-May-13 02:30N 36°04' W 005°21'4 8.1
2018-May-13 02:00N 36°08' W 005°23'0 0.6
2018-May-13 01:20N 36°08' W 005°23'0 0.2
2018-May-13 00:56N 36°08' W 005°23'0 0.2
2018-May-13 00:29N 36°08' W 005°23'0 0.1
2018-May-12 23:59N 36°08' W 005°23'0 0.0
2018-May-12 23:29N 36°08' W 005°23'0 0.1
2018-May-12 22:58N 36°08' W 005°23'0 0.3
2018-May-12 22:29N 36°08' W 005°23'0 0.0
2018-May-12 17:26N 36°08' W 005°23'0 0.0
2018-May-12 16:59N 36°08' W 005°23'0 0.1
2018-May-12 15:39N 36°08' W 005°23'0 0.1
2018-May-12 14:25N 36°08' W 005°23'1 3.2
2018-May-12 13:58N 36°06' W 005°22'5 6.4
2018-May-12 13:13N 36°03' W 005°18'0 2.0
2018-May-12 13:00N 36°03' W 005°18'1 2.6
2018-May-12 12:28N 36°02' W 005°20'510.8
2018-May-12 12:00N 35°59' W 005°24'18412.3
2018-May-11 21:01N 35°38' W 009°10'1112.2
2018-May-11 20:06N 35°36' W 009°23'412.1
2018-May-11 19:48N 35°36' W 009°28'  
Track history (hours):
 
Tides and Currents Weather Stations Pressure Air Temp Water Temp Dewpoint Dewpoint Depression Visibility Wind Speed Wind Dir Waves Ship Positions

Golden Empress

Last reported at 2018-May-16 12:36 UTC. Time now 2018-May-22 19:23 UTC.
Position N 36°19' E 014°21'.

Length 229 m; draft 14.5 m.

Type: Ship. MMSI: 477962300.

Date/timePositionNaut miles runAvg speedWind from/ knotsBaromVisibWave heightAir tempDewpointWater temp
2018-May-16 12:36N 36°19' E 014°21'111.7
2018-May-16 12:30N 36°19' E 014°20'711.8
2018-May-16 11:57N 36°20' E 014°12'612.1
2018-May-16 11:29N 36°21' E 014°05'1012.2
2018-May-16 10:39N 36°24' E 013°53'212.2
2018-May-16 10:31N 36°24' E 013°51'612.2
2018-May-16 10:00N 36°25' E 013°43'712.1
2018-May-16 09:28N 36°27' E 013°35'1312.3
2018-May-16 08:25N 36°32' E 013°20'613.5
2018-May-16 07:59N 36°34' E 013°14'1113.3
2018-May-16 07:11N 36°39' E 013°02'  
2018-May-14 01:51N 36°41' E 000°19'411.2
2018-May-14 01:30N 36°40' E 000°14'611.1
2018-May-14 00:59N 36°39' E 000°07'23311.7
2018-May-13 05:09N 36°03' W 004°39'2113.5
2018-May-13 03:35N 36°02' W 005°05'112.3
2018-May-13 03:30N 36°02' W 005°06'612.3
2018-May-13 03:00N 36°01' W 005°13'612.6
2018-May-13 02:30N 36°04' W 005°21'4 8.1
2018-May-13 02:00N 36°08' W 005°23'0 0.6
2018-May-13 01:20N 36°08' W 005°23'0 0.2
2018-May-13 00:56N 36°08' W 005°23'0 0.2
2018-May-13 00:29N 36°08' W 005°23'0 0.1
2018-May-12 23:59N 36°08' W 005°23'0 0.0
2018-May-12 23:29N 36°08' W 005°23'0 0.1
2018-May-12 22:58N 36°08' W 005°23'0 0.3
2018-May-12 22:29N 36°08' W 005°23'0 0.0
2018-May-12 17:26N 36°08' W 005°23'0 0.0
2018-May-12 16:59N 36°08' W 005°23'0 0.1
2018-May-12 15:39N 36°08' W 005°23'0 0.1
2018-May-12 14:25N 36°08' W 005°23'1 3.2
2018-May-12 13:58N 36°06' W 005°22'5 6.4
2018-May-12 13:13N 36°03' W 005°18'0 2.0
2018-May-12 13:00N 36°03' W 005°18'1 2.6
2018-May-12 12:28N 36°02' W 005°20'510.8
2018-May-12 12:00N 35°59' W 005°24'18412.3
2018-May-11 21:01N 35°38' W 009°10'1112.2
2018-May-11 20:06N 35°36' W 009°23'412.1
2018-May-11 19:48N 35°36' W 009°28'  

Dump ship's entire track history